createdAt,value
2019-04-22T00:00:30.764Z,14.91
2019-04-22T00:01:32.365Z,14.51
2019-04-22T00:02:40.002Z,14.46
2019-04-22T00:03:45.301Z,14.25
2019-04-22T00:04:56.242Z,14.09
2019-04-22T00:06:05.276Z,14.27
2019-04-22T00:07:19.721Z,14.52
2019-04-22T00:08:19.201Z,14.36
2019-04-22T00:09:24.089Z,14.15
2019-04-22T00:10:35.812Z,14.62
2019-04-22T00:11:48.590Z,14.75
2019-04-22T00:12:46.841Z,15.02
2019-04-22T00:14:48.359Z,14.91
2019-04-22T00:15:53.879Z,14.58
2019-04-22T00:16:58.883Z,14.78
2019-04-22T00:18:07.443Z,14.64
2019-04-22T00:19:15.451Z,14.76
2019-04-22T00:20:08.600Z,14.78
2019-04-22T00:21:20.132Z,14.90
2019-04-22T00:22:26.084Z,15.15
2019-04-22T00:23:24.580Z,15.37
2019-04-22T00:24:24.285Z,14.70
2019-04-22T00:25:39.242Z,14.85
2019-04-22T00:26:40.647Z,14.74
2019-04-22T00:28:50.092Z,14.53
2019-04-22T00:30:00.641Z,14.36
2019-04-22T00:31:00.718Z,14.34
2019-04-22T00:31:58.975Z,14.18
2019-04-22T00:33:08.070Z,14.06
2019-04-22T00:34:21.314Z,14.33
2019-04-22T00:35:19.514Z,14.46
2019-04-22T00:36:31.851Z,13.76
2019-04-22T00:37:35.784Z,13.48
2019-04-22T00:38:38.313Z,12.97
2019-04-22T00:39:42.725Z,12.81
2019-04-22T00:40:44.611Z,12.59
2019-04-22T00:41:56.492Z,12.99
2019-04-22T00:42:58.349Z,12.98
2019-04-22T00:44:02.937Z,13.31
2019-04-22T00:45:15.697Z,12.82
2019-04-22T00:46:11.036Z,12.79
2019-04-22T00:47:23.434Z,12.48
2019-04-22T00:48:48.941Z,12.22
2019-04-22T00:50:30.186Z,12.31
2019-04-22T00:51:47.422Z,12.39
2019-04-22T00:52:41.970Z,12.74
2019-04-22T00:53:47.600Z,12.63
2019-04-22T00:54:54.443Z,12.69
2019-04-22T00:57:12.552Z,12.40
2019-04-22T00:58:15.851Z,12.39
2019-04-22T00:59:22.300Z,12.68
2019-04-22T01:00:24.687Z,12.48
2019-04-22T01:01:31.936Z,12.57
2019-04-22T01:02:41.508Z,11.90
2019-04-22T01:03:47.517Z,12.76
2019-04-22T01:04:47.147Z,12.91
2019-04-22T01:05:50.960Z,13.23
2019-04-22T01:06:51.439Z,13.17
2019-04-22T01:07:57.058Z,13.56
2019-04-22T01:09:04.636Z,13.86
2019-04-22T01:10:07.518Z,14.14
2019-04-22T01:11:18.317Z,13.56
2019-04-22T01:12:21.254Z,14.16
2019-04-22T01:13:21.671Z,14.10
2019-04-22T01:14:21.974Z,13.94
2019-04-22T01:15:33.934Z,13.63
2019-04-22T01:16:35.686Z,13.52
2019-04-22T01:17:40.164Z,13.48
2019-04-22T01:18:42.349Z,13.40
2019-04-22T01:20:05.000Z,13.56
2019-04-22T01:21:08.684Z,13.73
2019-04-22T01:22:03.075Z,13.59
2019-04-22T01:23:05.537Z,13.82
2019-04-22T01:24:02.879Z,13.99
2019-04-22T01:25:07.976Z,13.40
2019-04-22T01:26:15.451Z,12.93
2019-04-22T01:27:19.065Z,13.34
2019-04-22T01:28:23.849Z,13.75
2019-04-22T01:29:28.057Z,14.08
2019-04-22T01:30:30.411Z,13.77
2019-04-22T01:31:27.479Z,14.13
2019-04-22T01:32:36.124Z,14.50
2019-04-22T01:33:38.992Z,14.72
2019-04-22T01:34:52.732Z,14.88
2019-04-22T01:36:02.728Z,15.01
2019-04-22T01:37:02.957Z,15.10
2019-04-22T01:38:07.835Z,14.74
2019-04-22T01:39:33.859Z,14.22
2019-04-22T01:40:24.178Z,14.35
2019-04-22T01:41:36.996Z,14.73
2019-04-22T01:42:35.826Z,15.13
2019-04-22T01:43:50.338Z,15.17
2019-04-22T01:44:45.248Z,15.49
2019-04-22T01:45:45.055Z,15.46
2019-04-22T01:46:50.692Z,15.66
2019-04-22T01:48:00.627Z,15.62
2019-04-22T01:49:06.526Z,15.56
2019-04-22T01:50:06.233Z,15.41
2019-04-22T01:51:07.591Z,15.46
2019-04-22T01:53:21.326Z,16.08
2019-04-22T01:54:29.815Z,15.97
2019-04-22T01:55:31.080Z,15.87
2019-04-22T01:56:38.997Z,15.76
2019-04-22T01:57:39.913Z,15.65
2019-04-22T01:58:33.532Z,15.67
2019-04-22T01:59:36.741Z,15.88
2019-04-22T02:00:53.467Z,15.96
2019-04-22T02:02:00.550Z,15.72
2019-04-22T02:03:07.142Z,15.68
2019-04-22T02:04:10.113Z,15.40
2019-04-22T02:05:12.276Z,15.33
2019-04-22T02:06:17.812Z,15.23
2019-04-22T02:07:16.517Z,15.38
2019-04-22T02:08:31.440Z,15.53
2019-04-22T02:09:31.364Z,15.58
2019-04-22T02:11:40.513Z,15.49
2019-04-22T02:12:43.356Z,15.37
2019-04-22T02:13:52.284Z,15.75
2019-04-22T02:15:58.282Z,15.84
2019-04-22T02:17:06.495Z,15.87
2019-04-22T02:18:11.559Z,15.85
2019-04-22T02:19:11.212Z,15.71
2019-04-22T02:20:11.296Z,15.88
2019-04-22T02:21:13.699Z,15.98
2019-04-22T02:22:38.579Z,15.86
2019-04-22T02:23:45.451Z,15.89
2019-04-22T02:24:38.329Z,15.82
2019-04-22T02:25:41.000Z,15.58
2019-04-22T02:26:40.273Z,15.55
2019-04-22T02:27:45.596Z,15.36
2019-04-22T02:29:03.609Z,15.49
2019-04-22T02:32:10.630Z,15.28
2019-04-22T02:33:46.782Z,15.47
2019-04-22T02:34:32.933Z,15.18
2019-04-22T02:35:44.700Z,15.26
2019-04-22T02:37:23.309Z,15.80
2019-04-22T02:39:38.306Z,16.06
2019-04-22T02:40:56.467Z,16.12
2019-04-22T02:41:46.504Z,15.92
2019-04-22T02:42:51.847Z,15.57
2019-04-22T02:43:59.554Z,15.84
2019-04-22T02:44:53.122Z,15.83
2019-04-22T02:48:31.507Z,15.54
2019-04-22T02:49:22.645Z,15.78
2019-04-22T02:51:22.164Z,15.67
2019-04-22T02:52:30.997Z,16.10
2019-04-22T02:54:12.176Z,16.16
2019-04-22T02:59:04.219Z,16.01
2019-04-22T03:01:05.965Z,15.90
2019-04-22T03:02:07.262Z,15.87
2019-04-22T03:03:20.958Z,15.75
2019-04-22T03:04:35.586Z,15.80
2019-04-22T03:05:27.932Z,15.73
2019-04-22T03:06:30.456Z,15.64
2019-04-22T03:07:56.120Z,15.83
2019-04-22T03:08:39.646Z,15.90
2019-04-22T03:09:55.083Z,15.96
2019-04-22T03:11:07.475Z,15.93
2019-04-22T03:11:56.642Z,16.10
2019-04-22T03:12:55.942Z,16.01
2019-04-22T03:15:02.742Z,15.44
2019-04-22T03:17:18.008Z,15.37
2019-04-22T03:18:19.450Z,15.34
2019-04-22T03:19:46.820Z,15.48
2019-04-22T03:20:24.777Z,15.37
2019-04-22T03:21:27.997Z,15.15
2019-04-22T03:22:40.938Z,15.07
2019-04-22T03:23:49.515Z,14.84
2019-04-22T03:26:58.555Z,15.53
2019-04-22T03:28:09.686Z,15.50
2019-04-22T03:28:57.152Z,15.38
2019-04-22T03:31:47.512Z,15.01
2019-04-22T03:32:59.324Z,14.93
2019-04-22T03:33:52.332Z,14.72
2019-04-22T03:35:19.190Z,14.87
2019-04-22T03:35:55.565Z,14.98
2019-04-22T03:37:13.950Z,14.84
2019-04-22T03:37:52.634Z,14.83
2019-04-22T03:40:05.706Z,15.13
2019-04-22T03:41:32.211Z,15.52
2019-04-22T03:43:14.131Z,15.55
2019-04-22T03:45:26.608Z,15.51
2019-04-22T03:46:30.392Z,15.41
2019-04-22T03:47:38.656Z,15.25
2019-04-22T03:48:38.117Z,15.12
2019-04-22T03:50:39.434Z,14.75
2019-04-22T03:51:56.741Z,14.91
2019-04-22T03:52:56.533Z,14.90
2019-04-22T03:54:26.001Z,14.91
2019-04-22T03:55:05.085Z,15.07
2019-04-22T03:56:47.302Z,15.17
2019-04-22T03:59:28.634Z,15.58
2019-04-22T04:00:35.681Z,15.55
2019-04-22T04:01:38.664Z,15.80
2019-04-22T04:02:43.514Z,15.84
2019-04-22T04:03:51.282Z,15.68
2019-04-22T04:04:39.338Z,15.62
2019-04-22T04:07:01.816Z,15.66
2019-04-22T04:09:04.230Z,15.88
2019-04-22T04:10:10.486Z,15.79
2019-04-22T04:10:58.218Z,15.78
2019-04-22T04:12:22.054Z,15.68
2019-04-22T04:13:20.542Z,15.69
2019-04-22T04:15:24.381Z,15.54
2019-04-22T04:16:36.887Z,15.41
2019-04-22T04:17:36.929Z,15.48
2019-04-22T04:18:46.666Z,15.65
2019-04-22T04:19:56.391Z,15.68
2019-04-22T04:21:46.865Z,15.78
2019-04-22T04:23:18.246Z,15.93
2019-04-22T04:27:41.804Z,16.15
2019-04-22T04:29:37.723Z,15.89
2019-04-22T04:31:36.664Z,16.17
2019-04-22T04:32:48.337Z,16.00
2019-04-22T04:33:50.935Z,16.01
2019-04-22T04:35:03.152Z,16.03
2019-04-22T04:37:55.688Z,16.17
2019-04-22T04:40:23.180Z,15.96
2019-04-22T04:41:19.407Z,16.22
2019-04-22T04:43:26.103Z,16.42
2019-04-22T04:44:48.933Z,16.46
2019-04-22T04:45:41.178Z,16.54
2019-04-22T04:46:45.175Z,16.53
2019-04-22T04:47:55.325Z,16.61
2019-04-22T04:48:51.825Z,16.74
2019-04-22T04:49:54.657Z,16.93
2019-04-22T04:52:06.662Z,16.88
2019-04-22T04:54:23.825Z,17.13
2019-04-22T04:55:26.628Z,17.12
2019-04-22T04:56:23.257Z,16.96
2019-04-22T04:57:33.608Z,16.72
2019-04-22T05:04:04.957Z,17.07
2019-04-22T05:05:08.353Z,17.15
2019-04-22T05:06:01.448Z,17.29
2019-04-22T05:07:18.753Z,17.35
2019-04-22T05:08:33.018Z,17.35
2019-04-22T05:09:21.449Z,17.53
2019-04-22T05:11:24.847Z,17.52
2019-04-22T05:12:40.998Z,17.56
2019-04-22T05:13:32.572Z,17.56
2019-04-22T05:14:32.457Z,17.68
2019-04-22T05:15:43.405Z,17.78
2019-04-22T05:16:51.896Z,17.84
2019-04-22T05:17:55.485Z,17.93
2019-04-22T05:19:08.884Z,17.94
2019-04-22T05:19:56.805Z,18.18
2019-04-22T05:21:09.585Z,18.22
2019-04-22T05:22:06.049Z,18.28
2019-04-22T05:23:16.498Z,18.25
2019-04-22T05:24:19.852Z,18.33
2019-04-22T05:25:17.862Z,18.14
2019-04-22T05:26:27.938Z,18.11
2019-04-22T05:28:31.498Z,18.09
2019-04-22T05:29:56.575Z,18.16
2019-04-22T05:30:42.462Z,18.16
2019-04-22T05:31:43.573Z,18.11
2019-04-22T05:33:51.463Z,18.17
2019-04-22T05:34:52.913Z,18.25
2019-04-22T05:36:03.041Z,18.34
2019-04-22T05:37:10.387Z,18.15
2019-04-22T05:38:09.681Z,17.96
2019-04-22T05:39:14.207Z,17.96
2019-04-22T05:40:20.043Z,17.97
2019-04-22T05:41:25.413Z,18.11
2019-04-22T05:42:34.223Z,18.25
2019-04-22T05:43:32.922Z,18.18
2019-04-22T05:44:34.641Z,18.28
2019-04-22T05:45:40.527Z,18.33
2019-04-22T05:46:40.825Z,18.24
2019-04-22T05:47:46.367Z,18.34
2019-04-22T05:48:54.263Z,18.47
2019-04-22T05:49:54.631Z,18.49
2019-04-22T05:51:03.237Z,18.28
2019-04-22T05:52:03.151Z,18.20
2019-04-22T05:53:08.642Z,17.82
2019-04-22T05:54:19.436Z,17.87
2019-04-22T05:55:23.786Z,18.14
2019-04-22T05:57:44.258Z,18.33
2019-04-22T05:58:39.471Z,18.52
2019-04-22T05:59:48.774Z,18.47
2019-04-22T06:01:23.635Z,18.51
2019-04-22T06:02:00.735Z,18.73
2019-04-22T06:04:11.282Z,19.02
2019-04-22T06:05:10.126Z,19.00
2019-04-22T06:06:13.737Z,19.18
2019-04-22T06:07:22.930Z,19.33
2019-04-22T06:08:25.703Z,19.20
2019-04-22T06:09:30.215Z,19.10
2019-04-22T06:10:39.925Z,19.28
2019-04-22T06:11:36.290Z,19.35
2019-04-22T06:12:40.390Z,19.42
2019-04-22T06:13:46.624Z,19.29
2019-04-22T06:15:01.138Z,19.38
2019-04-22T06:16:03.683Z,19.38
2019-04-22T06:17:10.814Z,19.45
2019-04-22T06:19:18.820Z,19.54
2019-04-22T06:20:27.781Z,19.69
2019-04-22T06:21:35.407Z,19.74
2019-04-22T06:23:00.310Z,19.88
2019-04-22T06:23:40.284Z,20.03
2019-04-22T06:24:41.978Z,19.80
2019-04-22T06:26:10.120Z,19.91
2019-04-22T06:28:07.130Z,19.74
2019-04-22T06:29:01.626Z,19.84
2019-04-22T06:30:07.976Z,19.90
2019-04-22T06:31:16.048Z,19.94
2019-04-22T06:33:21.070Z,20.02
2019-04-22T06:34:27.610Z,20.05
2019-04-22T06:36:42.429Z,20.23
2019-04-22T06:37:43.290Z,19.99
2019-04-22T06:39:44.768Z,20.23
2019-04-22T06:40:55.310Z,20.40
2019-04-22T06:41:58.877Z,19.73
2019-04-22T06:43:03.396Z,19.82
2019-04-22T06:44:04.846Z,20.01
2019-04-22T06:45:12.106Z,20.14
2019-04-22T06:46:14.404Z,20.31
2019-04-22T06:47:26.967Z,20.45
2019-04-22T06:48:23.590Z,20.26
2019-04-22T06:49:33.307Z,20.19
2019-04-22T06:50:40.498Z,20.17
2019-04-22T06:51:40.584Z,20.08
2019-04-22T06:52:40.665Z,20.04
2019-04-22T06:53:40.912Z,19.78
2019-04-22T06:54:48.965Z,20.02
2019-04-22T06:55:52.849Z,20.06
2019-04-22T06:58:00.369Z,19.85
2019-04-22T06:59:06.918Z,19.85
2019-04-22T07:00:14.260Z,19.71
2019-04-22T07:01:18.095Z,19.77
2019-04-22T07:02:24.022Z,19.90
2019-04-22T07:03:34.727Z,19.75
2019-04-22T07:04:30.273Z,19.63
2019-04-22T07:05:33.045Z,19.84
2019-04-22T07:06:41.881Z,19.88
2019-04-22T07:07:45.362Z,19.82
2019-04-22T07:10:50.818Z,18.83
2019-04-22T07:12:09.797Z,18.68
2019-04-22T07:13:01.193Z,18.39
2019-04-22T07:15:23.265Z,18.19
2019-04-22T07:18:31.468Z,18.82
2019-04-22T07:19:36.108Z,19.14
2019-04-22T07:20:42.177Z,18.64
2019-04-22T07:21:43.988Z,18.68
2019-04-22T07:24:02.691Z,18.43
2019-04-22T07:24:59.054Z,18.51
2019-04-22T07:26:06.043Z,18.00
2019-04-22T07:27:10.524Z,17.68
2019-04-22T07:29:21.681Z,17.40
2019-04-22T07:30:22.406Z,17.10
2019-04-22T07:31:42.716Z,17.22
2019-04-22T07:32:53.325Z,17.31
2019-04-22T07:34:44.551Z,17.30
2019-04-22T07:37:00.386Z,16.95
2019-04-22T07:37:57.172Z,17.24
2019-04-22T07:39:00.950Z,17.57
2019-04-22T07:40:02.247Z,16.95
2019-04-22T07:41:06.577Z,16.71
2019-04-22T07:42:16.776Z,16.74
2019-04-22T07:45:29.834Z,16.60
2019-04-22T07:46:39.178Z,16.63
2019-04-22T07:47:58.974Z,16.65
2019-04-22T07:49:46.977Z,16.71
2019-04-22T07:51:00.705Z,17.00
2019-04-22T07:51:49.618Z,17.01
2019-04-22T07:52:51.421Z,16.92
2019-04-22T07:54:01.726Z,17.20
2019-04-22T07:55:01.047Z,16.84
2019-04-22T07:56:16.222Z,16.83
2019-04-22T07:57:19.901Z,16.87
2019-04-22T07:59:26.520Z,17.12
2019-04-22T08:00:37.296Z,17.36
2019-04-22T08:02:44.136Z,17.92
2019-04-22T08:04:05.484Z,18.07
2019-04-22T08:04:58.029Z,17.91
2019-04-22T08:06:58.949Z,17.63
2019-04-22T08:08:07.229Z,17.69
2019-04-22T08:09:07.603Z,17.51
2019-04-22T08:10:17.226Z,17.66
2019-04-22T08:11:30.931Z,17.79
2019-04-22T08:12:18.809Z,17.68
2019-04-22T08:13:25.368Z,18.08
2019-04-22T08:14:34.461Z,18.27
2019-04-22T08:15:41.507Z,18.00
2019-04-22T08:16:43.770Z,18.26
2019-04-22T08:17:54.990Z,18.38
2019-04-22T08:18:47.280Z,18.52
2019-04-22T08:19:56.086Z,18.42
2019-04-22T08:20:59.063Z,18.05
2019-04-22T08:22:01.450Z,18.25
2019-04-22T08:23:09.618Z,18.10
2019-04-22T08:24:29.331Z,17.91
2019-04-22T08:25:18.004Z,17.65
2019-04-22T08:26:25.536Z,17.85
2019-04-22T08:27:22.523Z,17.66
2019-04-22T08:29:46.059Z,17.52
2019-04-22T08:30:50.511Z,17.50
2019-04-22T08:31:48.614Z,17.34
2019-04-22T08:32:53.144Z,17.39
2019-04-22T08:33:55.683Z,17.67
2019-04-22T08:35:04.618Z,17.87
2019-04-22T08:36:06.480Z,17.96
2019-04-22T08:38:17.637Z,17.94
2019-04-22T08:39:18.686Z,17.81
2019-04-22T08:40:32.515Z,17.61
2019-04-22T08:42:43.532Z,17.37
2019-04-22T08:43:48.286Z,17.69
2019-04-22T08:45:50.991Z,18.50
2019-04-22T08:46:53.585Z,18.79
2019-04-22T08:47:54.757Z,18.90
2019-04-22T08:49:00.800Z,19.07
2019-04-22T08:50:14.087Z,19.21
2019-04-22T08:51:13.619Z,19.40
2019-04-22T08:52:20.841Z,19.53
2019-04-22T08:53:23.870Z,19.66
2019-04-22T08:54:26.067Z,19.37
2019-04-22T08:55:35.373Z,18.98
2019-04-22T08:56:37.708Z,18.99
2019-04-22T08:58:03.182Z,19.14
2019-04-22T08:58:50.831Z,19.15
2019-04-22T08:59:54.483Z,18.88
2019-04-22T09:01:02.592Z,18.54
2019-04-22T09:02:04.863Z,18.83
2019-04-22T09:03:06.771Z,18.71
2019-04-22T09:04:10.003Z,18.52
2019-04-22T09:05:32.892Z,18.52
2019-04-22T09:06:36.077Z,18.43
2019-04-22T09:07:28.898Z,18.52
2019-04-22T09:08:34.159Z,18.77
2019-04-22T09:09:42.921Z,19.05
2019-04-22T09:10:46.762Z,19.27
2019-04-22T09:11:46.902Z,19.45
2019-04-22T09:13:55.166Z,19.81
2019-04-22T09:14:55.360Z,19.48
2019-04-22T09:16:05.341Z,19.45
2019-04-22T09:17:10.376Z,19.66
2019-04-22T09:18:14.529Z,19.73
2019-04-22T09:19:19.743Z,19.83
2019-04-22T09:20:24.676Z,19.77
2019-04-22T09:22:26.324Z,19.92
2019-04-22T09:23:38.740Z,19.97
2019-04-22T09:24:41.834Z,20.03
2019-04-22T09:25:51.109Z,19.99
2019-04-22T09:26:48.747Z,19.86
2019-04-22T09:28:08.717Z,19.39
2019-04-22T09:29:34.119Z,19.55
2019-04-22T09:30:04.965Z,19.68
2019-04-22T09:31:11.625Z,19.51
2019-04-22T09:33:20.940Z,20.03
2019-04-22T09:34:23.035Z,20.16
2019-04-22T09:35:31.874Z,20.30
2019-04-22T09:36:33.890Z,20.45
2019-04-22T09:37:38.986Z,20.60
2019-04-22T09:39:57.434Z,20.67
2019-04-22T09:41:05.444Z,20.79
2019-04-22T09:41:52.541Z,20.94
2019-04-22T09:42:56.391Z,20.98
2019-04-22T09:45:05.715Z,20.91
2019-04-22T09:46:09.040Z,21.00
2019-04-22T09:47:19.216Z,21.02
2019-04-22T09:48:26.716Z,21.10
2019-04-22T09:49:28.496Z,21.16
2019-04-22T09:50:40.485Z,21.04
2019-04-22T09:51:37.496Z,21.12
2019-04-22T09:52:42.137Z,20.85
2019-04-22T09:53:57.610Z,20.80
2019-04-22T09:55:56.781Z,19.81
2019-04-22T09:56:58.589Z,20.16
2019-04-22T09:58:02.835Z,20.38
2019-04-22T09:59:07.507Z,20.49
2019-04-22T10:02:24.996Z,20.90
2019-04-22T10:03:26.016Z,21.04
2019-04-22T10:04:36.447Z,21.12
2019-04-22T10:05:48.064Z,21.23
2019-04-22T10:06:36.685Z,21.34
2019-04-22T10:07:44.887Z,21.32
2019-04-22T10:09:01.752Z,21.29
2019-04-22T10:11:04.547Z,20.64
2019-04-22T10:12:02.755Z,20.80
2019-04-22T10:13:12.916Z,20.93
2019-04-22T10:14:12.541Z,21.03
2019-04-22T10:15:14.981Z,21.07
2019-04-22T10:16:27.474Z,21.20
2019-04-22T10:17:26.126Z,21.31
2019-04-22T10:18:34.051Z,21.42
2019-04-22T10:19:37.243Z,21.49
2019-04-22T10:20:42.929Z,21.52
2019-04-22T10:23:55.085Z,21.60
2019-04-22T10:24:57.075Z,21.49
2019-04-22T10:26:04.615Z,20.85
2019-04-22T10:27:01.591Z,20.94
2019-04-22T10:30:22.006Z,21.33
2019-04-22T10:31:23.872Z,21.46
2019-04-22T10:32:27.122Z,21.54
2019-04-22T10:33:25.760Z,21.40
2019-04-22T10:34:22.997Z,21.16
2019-04-22T10:35:19.866Z,20.57
2019-04-22T10:36:21.456Z,20.62
2019-04-22T10:37:25.613Z,20.49
2019-04-22T10:38:28.715Z,20.62
2019-04-22T10:39:42.052Z,20.33
2019-04-22T10:40:38.748Z,20.68
2019-04-22T10:41:41.211Z,20.87
2019-04-22T10:42:45.175Z,20.22
2019-04-22T10:43:47.988Z,20.40
2019-04-22T10:44:51.892Z,20.56
2019-04-22T10:45:54.628Z,20.77
2019-04-22T10:46:58.037Z,20.97
2019-04-22T10:48:01.679Z,21.30
2019-04-22T10:49:04.234Z,21.63
2019-04-22T10:50:10.289Z,21.21
2019-04-22T10:51:14.786Z,20.71
2019-04-22T10:52:18.209Z,20.78
2019-04-22T10:53:21.680Z,20.69
2019-04-22T10:54:25.370Z,21.14
2019-04-22T10:55:27.552Z,21.31
2019-04-22T10:56:30.637Z,21.67
2019-04-22T10:57:33.923Z,21.54
2019-04-22T10:58:36.077Z,21.60
2019-04-22T10:59:38.748Z,21.72
2019-04-22T11:00:42.365Z,22.03
2019-04-22T11:01:44.560Z,22.11
2019-04-22T11:02:47.830Z,22.10
2019-04-22T11:03:51.042Z,21.90
2019-04-22T11:04:54.496Z,21.85
2019-04-22T11:05:57.232Z,21.65
2019-04-22T11:07:05.464Z,21.67
2019-04-22T11:08:08.054Z,21.37
2019-04-22T11:09:10.607Z,21.25
2019-04-22T11:10:31.502Z,21.25
2019-04-22T11:11:30.084Z,21.35
2019-04-22T11:12:26.538Z,21.62
2019-04-22T11:13:28.257Z,21.75
2019-04-22T11:14:30.824Z,21.80
2019-04-22T11:15:34.841Z,21.77
2019-04-22T11:16:39.385Z,21.91
2019-04-22T11:17:43.770Z,21.87
2019-04-22T11:18:47.449Z,21.74
2019-04-22T11:19:50.273Z,21.86
2019-04-22T11:20:53.581Z,21.92
2019-04-22T11:22:03.787Z,22.08
2019-04-22T11:23:00.676Z,22.02
2019-04-22T11:24:05.127Z,22.01
2019-04-22T11:25:09.815Z,22.16
2019-04-22T11:26:12.448Z,22.30
2019-04-22T11:27:16.826Z,22.48
2019-04-22T11:28:20.622Z,22.38
2019-04-22T11:29:23.807Z,22.47
2019-04-22T11:30:28.075Z,22.60
2019-04-22T11:31:32.340Z,22.53
2019-04-22T11:32:38.261Z,22.43
2019-04-22T11:33:42.677Z,22.23
2019-04-22T11:34:46.737Z,22.45
2019-04-22T11:35:50.129Z,22.28
2019-04-22T11:36:52.697Z,22.17
2019-04-22T11:37:56.766Z,22.24
2019-04-22T11:39:02.377Z,22.01
2019-04-22T11:40:16.550Z,21.97
2019-04-22T11:41:12.642Z,22.03
2019-04-22T11:42:16.323Z,21.98
2019-04-22T11:43:20.081Z,21.99
2019-04-22T11:44:25.399Z,21.86
2019-04-22T11:45:29.116Z,22.04
2019-04-22T11:46:31.548Z,22.14
2019-04-22T11:47:35.378Z,22.32
2019-04-22T11:48:38.128Z,22.30
2019-04-22T11:49:41.714Z,21.87
2019-04-22T11:50:44.282Z,22.14
2019-04-22T11:51:47.921Z,22.24
2019-04-22T11:52:51.045Z,22.38
2019-04-22T11:53:54.780Z,22.32
2019-04-22T11:54:57.026Z,21.74
2019-04-22T11:56:00.486Z,21.81
2019-04-22T11:57:05.492Z,22.00
2019-04-22T11:58:18.978Z,22.16
2019-04-22T11:59:22.638Z,22.00
2019-04-22T12:00:27.925Z,22.18
2019-04-22T12:01:30.845Z,22.25
2019-04-22T12:02:33.416Z,22.41
2019-04-22T12:03:36.072Z,22.47
2019-04-22T12:04:40.046Z,22.53
2019-04-22T12:05:43.949Z,22.58
2019-04-22T12:06:46.271Z,22.46
2019-04-22T12:07:49.026Z,22.24
2019-04-22T12:08:51.997Z,22.12
2019-04-22T12:09:55.599Z,22.01
2019-04-22T12:11:01.904Z,22.15
2019-04-22T12:12:05.738Z,22.10
2019-04-22T12:13:08.344Z,22.14
2019-04-22T12:14:11.804Z,22.21
2019-04-22T12:15:15.286Z,22.15
2019-04-22T12:16:19.060Z,21.77
2019-04-22T12:17:22.345Z,21.59
2019-04-22T12:18:25.329Z,21.50
2019-04-22T12:19:29.406Z,21.51
2019-04-22T12:20:32.982Z,21.23
2019-04-22T12:21:37.042Z,21.13
2019-04-22T12:22:41.058Z,20.72
2019-04-22T12:23:44.942Z,20.66
2019-04-22T12:24:48.143Z,20.90
2019-04-22T12:25:58.030Z,21.18
2019-04-22T12:26:56.458Z,20.96
2019-04-22T12:27:59.271Z,21.09
2019-04-22T12:29:02.802Z,21.15
2019-04-22T12:30:09.286Z,21.12
2019-04-22T12:31:13.558Z,20.95
2019-04-22T12:32:16.049Z,21.20
2019-04-22T12:33:19.192Z,21.38
2019-04-22T12:34:23.758Z,21.64
2019-04-22T12:35:26.369Z,21.47
2019-04-22T12:36:30.591Z,21.42
2019-04-22T12:37:42.902Z,21.22
2019-04-22T12:38:37.777Z,21.32
2019-04-22T12:39:41.221Z,21.27
2019-04-22T12:40:51.312Z,20.73
2019-04-22T12:41:48.074Z,20.61
2019-04-22T12:42:51.342Z,20.65
2019-04-22T12:43:53.754Z,20.32
2019-04-22T12:44:58.271Z,20.20
2019-04-22T12:46:02.431Z,20.10
2019-04-22T12:47:07.953Z,20.10
2019-04-22T12:48:10.707Z,19.90
2019-04-22T12:49:14.164Z,20.04
2019-04-22T12:50:25.570Z,19.85
2019-04-22T12:51:23.126Z,19.93
2019-04-22T12:52:34.035Z,19.94
2019-04-22T12:53:31.519Z,19.86
2019-04-22T12:54:35.050Z,20.00
2019-04-22T12:55:39.661Z,19.87
2019-04-22T12:56:43.975Z,19.92
2019-04-22T12:57:46.525Z,19.87
2019-04-22T12:58:49.892Z,20.36
2019-04-22T12:59:53.398Z,20.38
2019-04-22T13:00:55.297Z,20.31
2019-04-22T13:02:00.684Z,20.47
2019-04-22T13:03:05.224Z,20.37
2019-04-22T13:04:11.766Z,20.50
2019-04-22T13:05:14.302Z,20.43
2019-04-22T13:06:17.549Z,20.18
2019-04-22T13:07:20.090Z,20.43
2019-04-22T13:08:23.448Z,20.78
2019-04-22T13:09:27.487Z,20.94
2019-04-22T13:10:40.635Z,21.21
2019-04-22T13:11:36.965Z,21.42
2019-04-22T13:12:40.663Z,21.57
2019-04-22T13:13:45.145Z,21.67
2019-04-22T13:14:48.879Z,21.70
2019-04-22T13:15:51.118Z,21.47
2019-04-22T13:16:55.129Z,21.64
2019-04-22T13:18:07.194Z,21.40
2019-04-22T13:19:09.082Z,21.35
2019-04-22T13:20:09.807Z,21.45
2019-04-22T13:21:13.120Z,21.24
2019-04-22T13:22:16.941Z,21.04
2019-04-22T13:23:19.996Z,20.65
2019-04-22T13:24:23.640Z,20.55
2019-04-22T13:25:28.428Z,20.51
2019-04-22T13:26:31.844Z,20.72
2019-04-22T13:27:35.139Z,20.78
2019-04-22T13:28:39.021Z,20.90
2019-04-22T13:29:43.382Z,20.81
2019-04-22T13:30:46.501Z,20.76
2019-04-22T13:31:50.917Z,20.73
2019-04-22T13:32:54.589Z,20.70
2019-04-22T13:33:59.742Z,20.58
2019-04-22T13:35:02.144Z,20.52
2019-04-22T13:36:08.022Z,20.25
2019-04-22T13:37:10.791Z,20.29
2019-04-22T13:38:13.026Z,20.05
2019-04-22T13:39:16.716Z,20.31
2019-04-22T13:40:21.077Z,20.21
2019-04-22T13:41:31.700Z,20.14
2019-04-22T13:42:29.542Z,20.27
2019-04-22T13:43:31.819Z,20.31
2019-04-22T13:44:35.577Z,20.39
2019-04-22T13:45:38.611Z,20.44
2019-04-22T13:47:02.927Z,20.13
2019-04-22T13:48:06.338Z,19.79
2019-04-22T13:49:21.280Z,19.82
2019-04-22T13:51:33.939Z,20.41
2019-04-22T13:53:48.127Z,20.18
2019-04-22T13:55:44.970Z,20.29
2019-04-22T13:56:43.924Z,20.07
2019-04-22T13:57:47.529Z,19.88
2019-04-22T13:58:51.482Z,19.91
2019-04-22T13:59:43.077Z,19.89
2019-04-22T14:00:42.575Z,19.66
2019-04-22T14:01:50.682Z,20.00
2019-04-22T14:03:12.855Z,20.27
2019-04-22T14:04:18.527Z,20.34
2019-04-22T14:05:24.463Z,20.12
2019-04-22T14:06:27.049Z,20.01
2019-04-22T14:07:30.743Z,20.01
2019-04-22T14:08:33.345Z,20.25
2019-04-22T14:09:35.943Z,20.30
2019-04-22T14:10:38.809Z,20.08
2019-04-22T14:11:49.726Z,20.30
2019-04-22T14:12:46.696Z,20.48
2019-04-22T14:13:50.249Z,20.80
2019-04-22T14:14:56.010Z,20.78
2019-04-22T14:16:01.243Z,21.14
2019-04-22T14:17:04.983Z,21.33
2019-04-22T14:18:07.568Z,21.54
2019-04-22T14:19:11.807Z,21.61
2019-04-22T14:20:16.058Z,21.75
2019-04-22T14:21:18.893Z,21.68
2019-04-22T14:22:22.281Z,21.62
2019-04-22T14:23:24.743Z,21.79
2019-04-22T14:24:27.918Z,21.95
2019-04-22T14:25:30.807Z,21.49
2019-04-22T14:26:44.285Z,21.36
2019-04-22T14:27:48.609Z,21.03
2019-04-22T14:28:44.100Z,20.92
2019-04-22T14:29:47.261Z,20.80
2019-04-22T14:30:50.498Z,20.94
2019-04-22T14:32:05.490Z,21.02
2019-04-22T14:33:00.382Z,21.32
2019-04-22T14:34:05.245Z,21.53
2019-04-22T14:35:09.212Z,21.69
2019-04-22T14:36:12.240Z,21.92
2019-04-22T14:37:16.328Z,22.01
2019-04-22T14:38:21.887Z,21.87
2019-04-22T14:39:24.414Z,22.02
2019-04-22T14:40:28.698Z,21.98
2019-04-22T14:41:49.009Z,21.74
2019-04-22T14:43:02.922Z,21.44
2019-04-22T14:45:05.374Z,21.38
2019-04-22T14:45:22.027Z,21.53
2019-04-22T14:47:20.095Z,21.22
2019-04-22T14:48:40.467Z,20.82
2019-04-22T14:49:31.899Z,20.72
2019-04-22T14:50:35.499Z,20.94
2019-04-22T14:51:39.645Z,21.08
2019-04-22T14:52:45.913Z,21.33
2019-04-22T14:53:44.568Z,21.54
2019-04-22T14:54:45.893Z,21.06
2019-04-22T14:55:39.997Z,21.04
2019-04-22T14:56:44.662Z,20.51
2019-04-22T14:57:49.013Z,20.66
2019-04-22T14:58:51.497Z,20.56
2019-04-22T14:59:55.791Z,20.32
2019-04-22T15:00:59.178Z,20.56
2019-04-22T15:02:03.409Z,20.96
2019-04-22T15:03:07.996Z,21.00
2019-04-22T15:04:11.208Z,21.34
2019-04-22T15:05:14.481Z,21.28
2019-04-22T15:06:16.193Z,20.87
2019-04-22T15:07:19.183Z,20.63
2019-04-22T15:08:22.960Z,20.75
2019-04-22T15:09:26.098Z,20.66
2019-04-22T15:10:28.566Z,20.44
2019-04-22T15:11:43.702Z,20.47
2019-04-22T15:12:43.710Z,20.41
2019-04-22T15:13:41.240Z,20.32
2019-04-22T15:14:44.034Z,20.39
2019-04-22T15:15:54.921Z,20.70
2019-04-22T15:16:57.649Z,21.02
2019-04-22T15:18:08.066Z,21.22
2019-04-22T15:19:17.946Z,20.92
2019-04-22T15:20:31.938Z,20.54
2019-04-22T15:21:34.564Z,20.85
2019-04-22T15:22:38.893Z,20.68
2019-04-22T15:23:42.587Z,20.38
2019-04-22T15:24:46.868Z,20.29
2019-04-22T15:25:50.744Z,20.00
2019-04-22T15:26:56.315Z,20.05
2019-04-22T15:27:59.457Z,20.09
2019-04-22T15:29:03.432Z,19.92
2019-04-22T15:30:07.630Z,19.90
2019-04-22T15:31:11.147Z,19.92
2019-04-22T15:32:13.699Z,19.64
2019-04-22T15:33:17.270Z,19.98
2019-04-22T15:34:20.732Z,20.23